Marienville, Pennsylvania
Current Conditions -  °F | °C
As of 6:12 AM on Thursday 18 Dec 2014 (Local Time) from KDUJ Reporting Station
Overcast Overcast  
Wind Chill: 15°   Ceiling: 1300
Heat Index: 25°   Visibility: 10mi
Dew Point: 21°   Wind: 10mph
Humidity: 85%   Direction: 280°W
Pressure: 30.06"   Gusts: 21mph
Location:  41.47°N, 79.12°W
Report Text: KDUJ 181112Z AUTO 28009G18KT 10SM OVC013 M04/M06 A3006 RMK AO2 T10391061
Loading
Personal Weather Stations






























Interactive Weather Map New forecast layout! Learn more

10-Day Weather Forecast

Advertisements
Track Severe Weather on mobile